createdAt,value
2022-10-02T00:01:34.649Z,11.40
2022-10-02T00:04:03.536Z,11.40
2022-10-02T00:06:43.461Z,11.40
2022-10-02T00:09:19.954Z,11.30
2022-10-02T00:11:53.594Z,11.40
2022-10-02T00:14:24.989Z,11.40
2022-10-02T00:16:57.473Z,11.40
2022-10-02T00:19:26.512Z,11.30
2022-10-02T00:22:13.050Z,11.30
2022-10-02T00:24:48.014Z,11.30
2022-10-02T00:27:34.351Z,11.30
2022-10-02T00:30:03.814Z,11.40
2022-10-02T00:32:38.759Z,11.30
2022-10-02T00:35:42.464Z,11.30
2022-10-02T00:38:22.705Z,11.30
2022-10-02T00:41:12.293Z,11.30
2022-10-02T00:43:52.791Z,11.20
2022-10-02T00:46:37.693Z,11.20
2022-10-02T00:49:26.187Z,11.20
2022-10-02T00:52:02.936Z,11.20
2022-10-02T00:54:54.578Z,11.20
2022-10-02T00:57:36.709Z,11.20
2022-10-02T01:00:10.527Z,11.20
2022-10-02T01:02:56.085Z,11.20
2022-10-02T01:05:27.252Z,11.10
2022-10-02T01:07:56.754Z,11.20
2022-10-02T01:10:26.544Z,11.10
2022-10-02T01:12:55.971Z,11.10
2022-10-02T01:15:28.818Z,11.10
2022-10-02T01:17:57.326Z,11.10
2022-10-02T01:20:32.857Z,11.10
2022-10-02T01:23:21.045Z,11.10
2022-10-02T01:25:50.266Z,11.10
2022-10-02T01:28:18.552Z,11.10
2022-10-02T01:30:50.949Z,11.10
2022-10-02T01:33:19.497Z,11.10
2022-10-02T01:35:48.536Z,11.10
2022-10-02T01:38:20.144Z,11.10
2022-10-02T01:40:47.924Z,11.00
2022-10-02T01:43:19.789Z,11.10
2022-10-02T01:45:57.895Z,11.00
2022-10-02T01:48:42.883Z,11.10
2022-10-02T01:51:40.602Z,11.00
2022-10-02T01:54:18.819Z,11.10
2022-10-02T01:56:55.465Z,11.00
2022-10-02T01:59:36.685Z,11.10
2022-10-02T02:02:15.188Z,11.10
2022-10-02T02:04:51.262Z,11.10
2022-10-02T02:07:25.988Z,11.10
2022-10-02T02:10:00.220Z,11.10
2022-10-02T02:12:36.741Z,11.10
2022-10-02T02:15:12.426Z,11.10
2022-10-02T02:17:49.234Z,11.00
2022-10-02T02:20:21.566Z,11.10
2022-10-02T02:22:52.693Z,11.10
2022-10-02T02:25:23.287Z,11.10
2022-10-02T02:27:54.096Z,11.10
2022-10-02T02:30:25.205Z,11.00
2022-10-02T02:32:55.808Z,11.00
2022-10-02T02:35:28.474Z,11.10
2022-10-02T02:37:59.450Z,11.00
2022-10-02T02:40:31.368Z,11.00
2022-10-02T02:43:03.996Z,11.00
2022-10-02T02:45:37.248Z,11.00
2022-10-02T02:48:09.878Z,11.00
2022-10-02T02:50:43.315Z,11.00
2022-10-02T02:53:14.934Z,11.00
2022-10-02T02:55:46.462Z,11.00
2022-10-02T02:58:17.533Z,10.90
2022-10-02T03:00:46.748Z,10.90
2022-10-02T03:03:14.521Z,10.90
2022-10-02T03:05:45.917Z,10.90
2022-10-02T03:08:23.672Z,10.90
2022-10-02T03:11:06.152Z,10.90
2022-10-02T03:13:46.263Z,10.80
2022-10-02T03:16:26.814Z,10.80
2022-10-02T03:19:09.001Z,10.80
2022-10-02T03:21:42.038Z,10.80
2022-10-02T03:24:16.857Z,10.80
2022-10-02T03:26:51.054Z,10.80
2022-10-02T03:29:26.248Z,10.80
2022-10-02T03:31:56.539Z,10.70
2022-10-02T03:34:25.271Z,10.70
2022-10-02T03:36:53.430Z,10.70
2022-10-02T03:39:26.164Z,10.70
2022-10-02T03:41:54.944Z,10.70
2022-10-02T03:44:22.813Z,10.70
2022-10-02T03:46:50.648Z,10.70
2022-10-02T03:49:19.779Z,10.70
2022-10-02T03:51:47.598Z,10.70
2022-10-02T03:54:18.595Z,10.70
2022-10-02T03:56:55.268Z,10.70
2022-10-02T03:59:37.930Z,10.70
2022-10-02T04:02:10.089Z,10.70
2022-10-02T04:04:46.318Z,10.70
2022-10-02T04:07:18.603Z,10.70
2022-10-02T04:09:52.882Z,10.70
2022-10-02T04:12:25.163Z,10.70
2022-10-02T04:14:57.116Z,10.70
2022-10-02T04:17:29.797Z,10.70
2022-10-02T04:20:04.540Z,10.70
2022-10-02T04:22:37.717Z,10.80
2022-10-02T04:25:11.559Z,10.80
2022-10-02T04:27:42.713Z,10.80
2022-10-02T04:30:14.808Z,10.80
2022-10-02T04:32:42.998Z,10.80
2022-10-02T04:35:17.227Z,10.90
2022-10-02T04:38:07.051Z,10.90
2022-10-02T04:40:56.154Z,10.90
2022-10-02T04:43:47.974Z,10.90
2022-10-02T04:46:33.429Z,10.90
2022-10-02T04:49:25.689Z,11.00
2022-10-02T04:52:10.278Z,11.10
2022-10-02T04:55:19.365Z,11.10
2022-10-02T04:58:00.254Z,11.10
2022-10-02T05:00:33.361Z,11.10
2022-10-02T05:03:16.207Z,11.10
2022-10-02T05:06:00.578Z,11.20
2022-10-02T05:08:43.292Z,11.20
2022-10-02T05:11:21.934Z,11.20
2022-10-02T05:14:13.878Z,11.20
2022-10-02T05:16:57.556Z,11.20
2022-10-02T05:19:44.617Z,11.20
2022-10-02T05:22:37.699Z,11.20
2022-10-02T05:25:22.913Z,11.20
2022-10-02T05:28:04.699Z,11.20
2022-10-02T05:30:42.211Z,11.10
2022-10-02T05:33:32.181Z,11.10
2022-10-02T05:36:15.082Z,11.10
2022-10-02T05:39:08.130Z,11.10
2022-10-02T05:41:50.010Z,11.10
2022-10-02T05:44:21.209Z,11.00
2022-10-02T05:46:53.600Z,11.10
2022-10-02T05:49:26.395Z,11.00
2022-10-02T05:51:59.736Z,11.00
2022-10-02T05:54:40.870Z,11.00
2022-10-02T05:57:17.635Z,11.00
2022-10-02T05:59:57.072Z,11.00
2022-10-02T06:02:38.824Z,11.00
2022-10-02T06:05:15.819Z,11.00
2022-10-02T06:07:47.177Z,11.00
2022-10-02T06:10:20.223Z,11.10
2022-10-02T06:12:55.208Z,11.10
2022-10-02T06:15:30.068Z,11.10
2022-10-02T06:18:02.538Z,11.10
2022-10-02T06:20:35.676Z,11.20
2022-10-02T06:23:11.010Z,11.20
2022-10-02T06:25:44.159Z,11.30
2022-10-02T06:28:18.230Z,11.30
2022-10-02T06:30:50.395Z,11.40
2022-10-02T06:33:22.019Z,11.50
2022-10-02T06:36:05.058Z,11.60
2022-10-02T06:38:46.064Z,11.70
2022-10-02T06:41:24.085Z,11.70
2022-10-02T06:44:12.727Z,11.70
2022-10-02T06:46:51.477Z,11.80
2022-10-02T06:49:31.907Z,11.80
2022-10-02T06:52:07.913Z,11.80
2022-10-02T06:54:49.547Z,11.80
2022-10-02T06:57:29.086Z,11.80
2022-10-02T07:00:09.326Z,11.90
2022-10-02T07:03:19.871Z,12.00
2022-10-02T07:06:10.802Z,12.10
2022-10-02T07:08:51.978Z,12.10
2022-10-02T07:11:28.059Z,12.10
2022-10-02T07:14:17.410Z,12.10
2022-10-02T07:17:22.939Z,12.20
2022-10-02T07:20:21.320Z,12.10
2022-10-02T07:23:06.805Z,12.20
2022-10-02T07:25:45.070Z,12.10
2022-10-02T07:28:21.049Z,12.10
2022-10-02T07:30:58.903Z,12.10
2022-10-02T07:33:45.245Z,12.10
2022-10-02T07:36:16.961Z,12.10
2022-10-02T07:39:02.183Z,12.20
2022-10-02T07:42:02.037Z,12.30
2022-10-02T07:44:51.942Z,12.30
2022-10-02T07:47:34.748Z,12.40
2022-10-02T07:50:12.489Z,12.50
2022-10-02T07:52:47.887Z,12.60
2022-10-02T07:55:18.215Z,12.60
2022-10-02T07:57:55.067Z,12.70
2022-10-02T08:00:25.694Z,12.80
2022-10-02T08:02:59.636Z,12.80
2022-10-02T08:05:31.908Z,12.90
2022-10-02T08:08:04.360Z,12.90
2022-10-02T08:10:36.630Z,13.00
2022-10-02T08:13:11.982Z,13.00
2022-10-02T08:15:42.694Z,13.00
2022-10-02T08:18:33.708Z,13.10
2022-10-02T08:21:04.909Z,13.10
2022-10-02T08:23:38.660Z,13.10
2022-10-02T08:26:10.460Z,13.20
2022-10-02T08:28:43.861Z,13.20
2022-10-02T08:31:12.742Z,13.40
2022-10-02T08:33:41.168Z,13.40
2022-10-02T08:36:41.578Z,13.30
2022-10-02T08:39:18.851Z,13.40
2022-10-02T08:42:32.274Z,13.50
2022-10-02T08:45:26.926Z,13.50
2022-10-02T08:48:31.600Z,13.60
2022-10-02T08:51:40.196Z,13.60
2022-10-02T08:54:54.402Z,13.60
2022-10-02T08:57:38.488Z,13.80
2022-10-02T09:00:20.820Z,13.90
2022-10-02T09:03:25.787Z,13.90
2022-10-02T09:06:31.362Z,14.00
2022-10-02T09:09:27.880Z,14.00
2022-10-02T09:12:35.279Z,14.00
2022-10-02T09:15:15.821Z,14.00
2022-10-02T09:17:49.939Z,14.10
2022-10-02T09:20:44.688Z,14.10
2022-10-02T09:24:00.552Z,14.30
2022-10-02T09:26:43.098Z,14.30
2022-10-02T09:29:42.311Z,14.50
2022-10-02T09:32:43.267Z,14.60
2022-10-02T09:35:37.138Z,14.80
2022-10-02T09:38:30.455Z,14.90
2022-10-02T09:41:24.575Z,15.10
2022-10-02T09:44:39.460Z,15.20
2022-10-02T09:47:26.967Z,15.20
2022-10-02T09:50:34.804Z,15.30
2022-10-02T09:53:37.316Z,15.40
2022-10-02T09:56:27.173Z,15.50
2022-10-02T09:59:27.134Z,15.60
2022-10-02T10:02:25.462Z,15.70
2022-10-02T10:05:27.999Z,15.80
2022-10-02T10:08:22.228Z,15.90
2022-10-02T10:11:29.170Z,15.80
2022-10-02T10:14:33.773Z,16.10
2022-10-02T10:17:30.528Z,16.10
2022-10-02T10:20:15.494Z,16.20
2022-10-02T10:23:09.021Z,16.40
2022-10-02T10:25:51.336Z,16.50
2022-10-02T10:28:46.471Z,16.50
2022-10-02T10:31:49.191Z,16.60
2022-10-02T10:34:45.991Z,16.70
2022-10-02T10:37:49.269Z,16.70
2022-10-02T10:40:32.370Z,16.60
2022-10-02T10:43:33.290Z,16.60
2022-10-02T10:46:15.484Z,16.70
2022-10-02T10:49:06.905Z,16.80
2022-10-02T10:51:45.649Z,16.70
2022-10-02T10:54:52.793Z,16.60
2022-10-02T10:57:31.870Z,16.60
2022-10-02T11:02:54.584Z,16.80
2022-10-02T11:05:48.137Z,16.70
2022-10-02T11:08:33.743Z,16.80
2022-10-02T11:11:09.401Z,16.80
2022-10-02T11:13:54.414Z,17.00
2022-10-02T11:16:47.170Z,16.90
2022-10-02T11:19:39.551Z,17.00
2022-10-02T11:22:23.286Z,17.20
2022-10-02T11:27:43.214Z,17.10
2022-10-02T11:30:22.227Z,17.20
2022-10-02T11:33:24.218Z,17.20
2022-10-02T11:36:08.749Z,17.20
2022-10-02T11:41:43.693Z,17.40
2022-10-02T11:44:20.842Z,17.40
2022-10-02T11:47:32.620Z,17.50
2022-10-02T11:50:24.541Z,17.60
2022-10-02T11:53:11.275Z,17.70
2022-10-02T11:55:52.570Z,17.70
2022-10-02T11:58:37.207Z,17.80
2022-10-02T12:01:26.287Z,17.80
2022-10-02T12:04:11.309Z,17.70
2022-10-02T12:07:00.341Z,17.80
2022-10-02T12:09:41.964Z,17.60
2022-10-02T12:12:27.725Z,17.70
2022-10-02T12:15:07.174Z,17.70
2022-10-02T12:17:53.164Z,17.80
2022-10-02T12:20:48.250Z,17.80
2022-10-02T12:23:50.021Z,17.90
2022-10-02T12:26:48.860Z,17.90
2022-10-02T12:29:27.329Z,18.00
2022-10-02T12:32:07.820Z,17.80
2022-10-02T12:34:48.377Z,17.60
2022-10-02T12:37:24.013Z,17.50
2022-10-02T12:40:00.157Z,17.30
2022-10-02T12:42:53.583Z,17.10
2022-10-02T12:45:51.706Z,16.80
2022-10-02T12:48:33.731Z,16.70
2022-10-02T12:51:41.142Z,16.60
2022-10-02T12:54:27.859Z,16.50
2022-10-02T12:57:39.247Z,16.50
2022-10-02T13:00:15.354Z,16.50
2022-10-02T13:03:19.549Z,16.40
2022-10-02T13:06:25.055Z,16.40
2022-10-02T13:09:12.513Z,16.30
2022-10-02T13:11:56.017Z,16.40
2022-10-02T13:14:41.813Z,16.30
2022-10-02T13:17:20.345Z,16.30
2022-10-02T13:20:00.108Z,16.30
2022-10-02T13:22:37.824Z,16.30
2022-10-02T13:25:34.422Z,16.20
2022-10-02T13:28:23.014Z,16.20
2022-10-02T13:31:02.857Z,16.00
2022-10-02T13:33:51.452Z,16.10
2022-10-02T13:36:26.149Z,16.10
2022-10-02T13:39:12.431Z,16.10
2022-10-02T13:42:02.670Z,16.20
2022-10-02T13:44:38.248Z,16.20
2022-10-02T13:47:32.799Z,16.20
2022-10-02T13:50:17.624Z,16.20
2022-10-02T13:52:58.904Z,16.10
2022-10-02T13:55:29.085Z,16.10
2022-10-02T13:58:20.646Z,16.10
2022-10-02T14:01:14.861Z,16.00
2022-10-02T14:03:58.790Z,16.00
2022-10-02T14:06:32.612Z,16.00
2022-10-02T14:09:18.164Z,16.00
2022-10-02T14:12:00.446Z,16.00
2022-10-02T14:14:56.273Z,16.00
2022-10-02T14:17:34.541Z,16.00
2022-10-02T14:20:19.923Z,16.00
2022-10-02T14:23:03.615Z,15.90
2022-10-02T14:25:46.605Z,15.90
2022-10-02T14:28:40.708Z,15.90
2022-10-02T14:31:36.270Z,15.80
2022-10-02T14:34:45.461Z,15.80
2022-10-02T14:37:59.018Z,15.80
2022-10-02T14:40:32.238Z,15.70
2022-10-02T14:43:19.621Z,15.70
2022-10-02T14:46:16.800Z,15.60
2022-10-02T14:49:09.483Z,15.50
2022-10-02T14:52:02.197Z,15.40
2022-10-02T14:54:49.899Z,15.40
2022-10-02T14:57:29.849Z,15.30
2022-10-02T15:00:08.464Z,15.20
2022-10-02T15:03:07.684Z,15.20
2022-10-02T15:05:48.496Z,15.20
2022-10-02T15:08:21.196Z,15.10
2022-10-02T15:10:50.114Z,15.10
2022-10-02T15:13:28.518Z,15.00
2022-10-02T15:16:20.444Z,15.10
2022-10-02T15:18:56.144Z,15.00
2022-10-02T15:21:30.495Z,15.00
2022-10-02T15:23:59.884Z,15.00
2022-10-02T15:26:47.506Z,14.90
2022-10-02T15:29:24.757Z,14.90
2022-10-02T15:32:19.291Z,14.90
2022-10-02T15:34:53.113Z,14.90
2022-10-02T15:37:28.669Z,14.90
2022-10-02T15:40:19.248Z,14.90
2022-10-02T15:42:55.123Z,14.80
2022-10-02T15:45:50.853Z,14.90
2022-10-02T15:48:33.689Z,14.80
2022-10-02T15:51:11.411Z,14.80
2022-10-02T15:53:55.830Z,14.80
2022-10-02T15:56:40.579Z,14.80
2022-10-02T15:59:27.473Z,14.80
2022-10-02T16:02:10.168Z,14.70
2022-10-02T16:04:54.652Z,14.70
2022-10-02T16:07:50.779Z,14.70
2022-10-02T16:10:25.459Z,14.70
2022-10-02T16:13:13.795Z,14.60
2022-10-02T16:15:52.017Z,14.60
2022-10-02T16:18:46.282Z,14.60
2022-10-02T16:21:32.485Z,14.60
2022-10-02T16:24:16.668Z,14.50
2022-10-02T16:27:19.203Z,14.50
2022-10-02T16:30:05.267Z,14.50
2022-10-02T16:32:43.951Z,14.30
2022-10-02T16:35:20.945Z,14.20
2022-10-02T16:37:59.832Z,14.30
2022-10-02T16:40:34.494Z,14.20
2022-10-02T16:43:47.231Z,14.30
2022-10-02T16:46:21.204Z,14.20
2022-10-02T16:48:56.470Z,14.00
2022-10-02T16:51:45.626Z,13.90
2022-10-02T16:54:23.433Z,14.00
2022-10-02T16:56:55.369Z,14.00
2022-10-02T16:59:27.710Z,13.80
2022-10-02T17:02:17.650Z,14.00
2022-10-02T17:05:00.146Z,13.90
2022-10-02T17:07:34.807Z,13.80
2022-10-02T17:10:18.965Z,13.90
2022-10-02T17:12:52.683Z,13.90
2022-10-02T17:15:26.455Z,13.90
2022-10-02T17:18:23.399Z,13.90
2022-10-02T17:20:54.965Z,14.00
2022-10-02T17:23:29.235Z,13.80
2022-10-02T17:26:04.798Z,13.80
2022-10-02T17:28:42.533Z,13.80
2022-10-02T17:31:25.335Z,13.60
2022-10-02T17:33:57.848Z,13.70
2022-10-02T17:36:35.717Z,13.70
2022-10-02T17:39:24.445Z,13.50
2022-10-02T17:41:57.099Z,13.80
2022-10-02T17:44:35.915Z,13.50
2022-10-02T17:47:29.035Z,13.60
2022-10-02T17:50:15.824Z,13.50
2022-10-02T17:53:06.166Z,13.60
2022-10-02T17:56:18.102Z,13.60
2022-10-02T17:58:56.922Z,13.60
2022-10-02T18:01:31.325Z,13.50
2022-10-02T18:04:10.214Z,13.50
2022-10-02T18:06:48.968Z,13.50
2022-10-02T18:09:39.794Z,13.50
2022-10-02T18:12:26.123Z,13.50
2022-10-02T18:15:11.657Z,13.50
2022-10-02T18:17:48.684Z,13.50
2022-10-02T18:20:33.063Z,13.50
2022-10-02T18:23:16.368Z,13.50
2022-10-02T18:26:15.466Z,13.50
2022-10-02T18:29:03.321Z,13.50
2022-10-02T18:31:55.751Z,13.50
2022-10-02T18:34:43.757Z,13.50
2022-10-02T18:37:29.150Z,13.50
2022-10-02T18:40:16.735Z,13.40
2022-10-02T18:43:02.232Z,13.40
2022-10-02T18:45:43.757Z,13.50
2022-10-02T18:48:39.143Z,13.40
2022-10-02T18:51:20.663Z,13.40
2022-10-02T18:54:02.031Z,13.40
2022-10-02T18:56:51.689Z,13.30
2022-10-02T18:59:30.037Z,13.30
2022-10-02T19:02:08.616Z,13.40
2022-10-02T19:04:57.932Z,13.30
2022-10-02T19:07:30.286Z,13.30
2022-10-02T19:10:26.224Z,13.30
2022-10-02T19:12:58.142Z,13.30
2022-10-02T19:15:28.289Z,13.30
2022-10-02T19:18:01.436Z,13.30
2022-10-02T19:20:44.981Z,13.30
2022-10-02T19:23:20.491Z,13.30
2022-10-02T19:25:50.086Z,13.30
2022-10-02T19:28:25.366Z,13.30
2022-10-02T19:30:57.286Z,13.30
2022-10-02T19:33:34.194Z,13.30
2022-10-02T19:36:05.778Z,13.30
2022-10-02T19:38:35.458Z,13.30
2022-10-02T19:41:09.853Z,13.30
2022-10-02T19:43:49.092Z,13.20
2022-10-02T19:46:19.817Z,13.20
2022-10-02T19:48:55.078Z,13.30
2022-10-02T19:51:22.911Z,13.30
2022-10-02T19:53:56.516Z,13.30
2022-10-02T19:56:31.911Z,13.20
2022-10-02T19:59:07.916Z,13.20
2022-10-02T20:01:43.072Z,13.20
2022-10-02T20:04:18.250Z,13.20
2022-10-02T20:06:52.866Z,13.20
2022-10-02T20:09:25.974Z,13.20
2022-10-02T20:11:58.766Z,13.20
2022-10-02T20:14:31.570Z,13.20
2022-10-02T20:17:10.404Z,13.20
2022-10-02T20:19:43.485Z,13.20
2022-10-02T20:22:23.987Z,13.20
2022-10-02T20:24:56.609Z,13.20
2022-10-02T20:27:34.727Z,13.20
2022-10-02T20:30:11.966Z,13.20
2022-10-02T20:32:46.191Z,13.20
2022-10-02T20:35:19.942Z,13.20
2022-10-02T20:37:50.443Z,13.30
2022-10-02T20:40:22.625Z,13.30
2022-10-02T20:42:57.708Z,13.20
2022-10-02T20:45:33.991Z,13.30
2022-10-02T20:49:06.844Z,13.30
2022-10-02T20:51:54.723Z,13.30
2022-10-02T20:54:35.514Z,13.30
2022-10-02T20:57:49.669Z,13.30
2022-10-02T21:00:21.464Z,13.30
2022-10-02T21:03:46.211Z,13.30
2022-10-02T21:06:39.510Z,13.20
2022-10-02T21:09:46.850Z,13.30
2022-10-02T21:12:54.541Z,13.20
2022-10-02T21:15:52.977Z,13.30
2022-10-02T21:18:47.848Z,13.20
2022-10-02T21:21:35.974Z,13.30
2022-10-02T21:24:34.025Z,13.20
2022-10-02T21:27:27.662Z,13.20
2022-10-02T21:30:15.434Z,13.30
2022-10-02T21:33:05.076Z,13.20
2022-10-02T21:35:42.071Z,13.20
2022-10-02T21:38:27.996Z,13.20
2022-10-02T21:41:26.192Z,13.20
2022-10-02T21:44:33.506Z,13.20
2022-10-02T21:47:30.391Z,13.20
2022-10-02T21:50:31.476Z,13.20
2022-10-02T21:53:30.867Z,13.20
2022-10-02T21:56:23.130Z,13.20
2022-10-02T21:59:11.074Z,13.20
2022-10-02T22:02:28.463Z,13.20
2022-10-02T22:05:23.258Z,13.20
2022-10-02T22:07:56.269Z,13.30
2022-10-02T22:10:31.004Z,13.20
2022-10-02T22:13:15.250Z,13.30
2022-10-02T22:15:49.735Z,13.30
2022-10-02T22:18:26.850Z,13.20
2022-10-02T22:21:10.209Z,13.20
2022-10-02T22:24:16.872Z,13.20
2022-10-02T22:27:09.701Z,13.20
2022-10-02T22:29:46.162Z,13.20
2022-10-02T22:32:50.716Z,13.20
2022-10-02T22:35:28.547Z,13.10
2022-10-02T22:38:09.819Z,13.10
2022-10-02T22:40:47.021Z,13.20
2022-10-02T22:43:28.757Z,13.20
2022-10-02T22:46:01.063Z,13.20
2022-10-02T22:48:37.155Z,13.10
2022-10-02T22:51:15.988Z,13.10
2022-10-02T22:53:50.755Z,13.10
2022-10-02T22:56:26.762Z,13.10
2022-10-02T22:59:02.936Z,13.10
2022-10-02T23:01:42.073Z,13.10
2022-10-02T23:04:20.423Z,13.10
2022-10-02T23:06:53.317Z,13.10
2022-10-02T23:09:25.897Z,13.10
2022-10-02T23:11:59.829Z,13.10
2022-10-02T23:14:39.144Z,13.10
2022-10-02T23:17:13.323Z,13.10
2022-10-02T23:19:44.789Z,13.10
2022-10-02T23:22:23.974Z,13.10
2022-10-02T23:25:00.257Z,13.10
2022-10-02T23:27:36.274Z,13.10
2022-10-02T23:30:08.926Z,13.10
2022-10-02T23:32:41.844Z,13.10
2022-10-02T23:35:14.958Z,13.10
2022-10-02T23:37:51.544Z,13.10
2022-10-02T23:40:46.583Z,13.10
2022-10-02T23:43:20.200Z,13.10
2022-10-02T23:45:57.816Z,13.10
2022-10-02T23:48:26.023Z,13.10
2022-10-02T23:51:01.864Z,13.10
2022-10-02T23:53:47.154Z,13.10
2022-10-02T23:56:36.406Z,13.10
2022-10-02T23:59:19.949Z,13.10
